sensor_id;sensor_type;location;lat;lon;timestamp;pressure;altitude;pressure_sealevel;temperature;humidity
42125;BME280;27787;44.594;11.046;2023-08-24T00:00:51;100926.34;;;28.51;56.78
42125;BME280;27787;44.594;11.046;2023-08-24T00:03:35;100930.56;;;28.42;57.44
42125;BME280;27787;44.594;11.046;2023-08-24T00:06:18;100922.88;;;28.35;57.93
42125;BME280;27787;44.594;11.046;2023-08-24T00:09:03;100931.53;;;28.27;58.13
42125;BME280;27787;44.594;11.046;2023-08-24T00:11:49;100927.03;;;28.26;58.49
42125;BME280;27787;44.594;11.046;2023-08-24T00:14:34;100922.97;;;28.33;58.41
42125;BME280;27787;44.594;11.046;2023-08-24T00:17:18;100926.75;;;28.45;57.72
42125;BME280;27787;44.594;11.046;2023-08-24T00:20:04;100932.75;;;28.50;56.86
42125;BME280;27787;44.594;11.046;2023-08-24T00:22:48;100929.88;;;28.53;56.49
42125;BME280;27787;44.594;11.046;2023-08-24T00:25:32;100930.44;;;28.44;56.68
42125;BME280;27787;44.594;11.046;2023-08-24T00:28:16;100930.25;;;28.33;57.82
42125;BME280;27787;44.594;11.046;2023-08-24T00:31:01;100928.97;;;28.24;58.72
42125;BME280;27787;44.594;11.046;2023-08-24T00:33:45;100929.16;;;28.21;58.72
42125;BME280;27787;44.594;11.046;2023-08-24T00:36:30;100925.47;;;28.22;58.44
42125;BME280;27787;44.594;11.046;2023-08-24T00:39:14;100924.03;;;28.16;58.70
42125;BME280;27787;44.594;11.046;2023-08-24T00:41:59;100928.97;;;28.10;59.48
42125;BME280;27787;44.594;11.046;2023-08-24T00:44:43;100930.91;;;28.08;59.44
42125;BME280;27787;44.594;11.046;2023-08-24T00:47:28;100933.91;;;28.03;59.58
42125;BME280;27787;44.594;11.046;2023-08-24T00:50:13;100928.69;;;28.00;60.00
42125;BME280;27787;44.594;11.046;2023-08-24T00:52:59;100926.03;;;27.99;59.93
42125;BME280;27787;44.594;11.046;2023-08-24T00:55:44;100924.13;;;28.01;58.75
42125;BME280;27787;44.594;11.046;2023-08-24T00:58:28;100925.69;;;28.05;57.29
42125;BME280;27787;44.594;11.046;2023-08-24T01:01:13;100926.56;;;28.05;56.64
42125;BME280;27787;44.594;11.046;2023-08-24T01:03:59;100923.72;;;28.07;56.85
42125;BME280;27787;44.594;11.046;2023-08-24T01:06:43;100931.22;;;28.03;56.58
42125;BME280;27787;44.594;11.046;2023-08-24T01:09:27;100937.78;;;27.99;56.79
42125;BME280;27787;44.594;11.046;2023-08-24T01:17:46;100937.38;;;27.77;57.24
42125;BME280;27787;44.594;11.046;2023-08-24T01:20:32;100938.81;;;27.68;57.87
42125;BME280;27787;44.594;11.046;2023-08-24T01:26:20;100950.63;;;27.67;57.08
42125;BME280;27787;44.594;11.046;2023-08-24T01:29:04;100942.50;;;27.67;57.37
42125;BME280;27787;44.594;11.046;2023-08-24T01:31:49;100950.81;;;27.64;56.86
42125;BME280;27787;44.594;11.046;2023-08-24T01:34:36;100948.53;;;27.56;56.91
42125;BME280;27787;44.594;11.046;2023-08-24T01:37:21;100951.53;;;27.52;57.38
42125;BME280;27787;44.594;11.046;2023-08-24T01:40:16;100943.59;;;27.49;57.61
42125;BME280;27787;44.594;11.046;2023-08-24T01:43:04;100942.00;;;27.45;57.63
42125;BME280;27787;44.594;11.046;2023-08-24T01:45:50;100933.47;;;27.37;57.86
42125;BME280;27787;44.594;11.046;2023-08-24T01:48:37;100941.75;;;27.33;57.95
42125;BME280;27787;44.594;11.046;2023-08-24T01:51:23;100945.13;;;27.23;58.26
42125;BME280;27787;44.594;11.046;2023-08-24T01:54:09;100945.38;;;27.18;58.17
42125;BME280;27787;44.594;11.046;2023-08-24T01:56:53;100947.31;;;27.16;58.26
42125;BME280;27787;44.594;11.046;2023-08-24T01:59:37;100951.97;;;27.14;58.79
42125;BME280;27787;44.594;11.046;2023-08-24T02:02:23;100943.84;;;27.14;58.81
42125;BME280;27787;44.594;11.046;2023-08-24T02:05:08;100944.69;;;27.15;58.78
42125;BME280;27787;44.594;11.046;2023-08-24T02:07:52;100945.06;;;27.09;59.30
42125;BME280;27787;44.594;11.046;2023-08-24T02:10:37;100955.44;;;27.00;59.75
42125;BME280;27787;44.594;11.046;2023-08-24T02:13:21;100949.50;;;26.94;60.14
42125;BME280;27787;44.594;11.046;2023-08-24T02:16:07;100943.91;;;26.97;60.09
42125;BME280;27787;44.594;11.046;2023-08-24T02:18:53;100949.00;;;27.03;59.04
42125;BME280;27787;44.594;11.046;2023-08-24T02:21:37;100944.88;;;26.96;59.48
42125;BME280;27787;44.594;11.046;2023-08-24T02:24:21;100955.09;;;26.91;59.67
42125;BME280;27787;44.594;11.046;2023-08-24T02:27:06;100949.59;;;26.92;58.81
42125;BME280;27787;44.594;11.046;2023-08-24T02:29:50;100956.84;;;26.92;59.15
42125;BME280;27787;44.594;11.046;2023-08-24T02:32:34;100963.41;;;26.88;60.18
42125;BME280;27787;44.594;11.046;2023-08-24T02:35:19;100952.91;;;26.82;60.79
42125;BME280;27787;44.594;11.046;2023-08-24T02:38:03;100957.44;;;26.81;60.61
42125;BME280;27787;44.594;11.046;2023-08-24T02:40:47;100956.66;;;26.79;60.82
42125;BME280;27787;44.594;11.046;2023-08-24T02:43:32;100948.03;;;26.72;61.33
42125;BME280;27787;44.594;11.046;2023-08-24T02:46:16;100957.72;;;26.77;61.01
42125;BME280;27787;44.594;11.046;2023-08-24T02:49:02;100960.69;;;26.72;61.36
42125;BME280;27787;44.594;11.046;2023-08-24T02:51:46;100957.34;;;26.67;62.11
42125;BME280;27787;44.594;11.046;2023-08-24T02:54:30;100953.97;;;26.63;61.93
42125;BME280;27787;44.594;11.046;2023-08-24T02:57:14;100953.00;;;26.64;61.59
42125;BME280;27787;44.594;11.046;2023-08-24T02:59:59;100950.38;;;26.63;62.13
42125;BME280;27787;44.594;11.046;2023-08-24T03:02:43;100956.22;;;26.55;62.24
42125;BME280;27787;44.594;11.046;2023-08-24T03:05:27;100946.97;;;26.43;62.55
42125;BME280;27787;44.594;11.046;2023-08-24T03:08:11;100943.84;;;26.34;63.28
42125;BME280;27787;44.594;11.046;2023-08-24T03:10:56;100953.03;;;26.31;63.66
42125;BME280;27787;44.594;11.046;2023-08-24T03:13:40;100948.00;;;26.41;63.44
42125;BME280;27787;44.594;11.046;2023-08-24T03:16:26;100958.81;;;26.41;63.34
42125;BME280;27787;44.594;11.046;2023-08-24T03:19:11;100948.50;;;26.32;64.41
42125;BME280;27787;44.594;11.046;2023-08-24T03:21:56;100951.88;;;26.20;64.98
42125;BME280;27787;44.594;11.046;2023-08-24T03:24:40;100949.47;;;26.13;65.79
42125;BME280;27787;44.594;11.046;2023-08-24T03:27:24;100947.81;;;26.11;65.81
42125;BME280;27787;44.594;11.046;2023-08-24T03:30:09;100953.13;;;26.12;65.80
42125;BME280;27787;44.594;11.046;2023-08-24T03:32:53;100960.84;;;26.20;66.27
42125;BME280;27787;44.594;11.046;2023-08-24T03:35:37;100960.41;;;26.28;66.00
42125;BME280;27787;44.594;11.046;2023-08-24T03:38:22;100958.91;;;26.39;66.42
42125;BME280;27787;44.594;11.046;2023-08-24T03:41:06;100964.09;;;26.44;66.11
42125;BME280;27787;44.594;11.046;2023-08-24T03:43:51;100952.72;;;26.37;66.38
42125;BME280;27787;44.594;11.046;2023-08-24T03:46:36;100964.09;;;26.27;66.91
42125;BME280;27787;44.594;11.046;2023-08-24T03:49:20;100963.00;;;26.13;68.43
42125;BME280;27787;44.594;11.046;2023-08-24T03:52:04;100960.88;;;26.03;69.38
42125;BME280;27787;44.594;11.046;2023-08-24T03:54:49;100964.88;;;25.96;69.90
42125;BME280;27787;44.594;11.046;2023-08-24T03:57:35;100964.22;;;25.91;70.20
42125;BME280;27787;44.594;11.046;2023-08-24T04:00:20;100964.41;;;25.87;70.38
42125;BME280;27787;44.594;11.046;2023-08-24T04:03:05;100970.38;;;25.94;70.38
42125;BME280;27787;44.594;11.046;2023-08-24T04:05:50;100970.59;;;26.07;69.54
42125;BME280;27787;44.594;11.046;2023-08-24T04:08:34;100970.50;;;26.08;68.59
42125;BME280;27787;44.594;11.046;2023-08-24T04:11:19;100959.56;;;25.94;69.04
42125;BME280;27787;44.594;11.046;2023-08-24T04:14:04;100961.59;;;25.89;69.21
42125;BME280;27787;44.594;11.046;2023-08-24T04:16:48;100956.47;;;25.84;69.78
42125;BME280;27787;44.594;11.046;2023-08-24T04:19:32;100958.59;;;25.78;70.07
42125;BME280;27787;44.594;11.046;2023-08-24T04:22:16;100966.00;;;25.74;70.26
42125;BME280;27787;44.594;11.046;2023-08-24T04:25:00;100969.28;;;25.81;70.08
42125;BME280;27787;44.594;11.046;2023-08-24T04:27:45;100969.72;;;25.89;69.33
42125;BME280;27787;44.594;11.046;2023-08-24T04:30:30;100976.41;;;25.99;69.19
42125;BME280;27787;44.594;11.046;2023-08-24T04:33:14;100975.06;;;26.08;68.12
42125;BME280;27787;44.594;11.046;2023-08-24T04:35:58;100983.69;;;26.14;67.71
42125;BME280;27787;44.594;11.046;2023-08-24T04:38:42;100975.19;;;26.22;67.49
42125;BME280;27787;44.594;11.046;2023-08-24T04:41:28;100988.34;;;26.28;65.88
42125;BME280;27787;44.594;11.046;2023-08-24T04:44:12;100988.13;;;26.33;65.08
42125;BME280;27787;44.594;11.046;2023-08-24T04:46:56;100993.00;;;26.26;64.85
42125;BME280;27787;44.594;11.046;2023-08-24T04:49:40;100989.66;;;26.21;64.93
42125;BME280;27787;44.594;11.046;2023-08-24T04:52:24;100990.53;;;26.22;65.16
42125;BME280;27787;44.594;11.046;2023-08-24T04:55:08;100991.41;;;26.22;64.46
42125;BME280;27787;44.594;11.046;2023-08-24T04:57:52;100989.50;;;26.24;63.85
42125;BME280;27787;44.594;11.046;2023-08-24T05:00:37;101000.41;;;26.23;64.56
42125;BME280;27787;44.594;11.046;2023-08-24T05:03:21;100999.72;;;26.19;64.54
42125;BME280;27787;44.594;11.046;2023-08-24T05:06:05;101005.50;;;26.11;64.49
42125;BME280;27787;44.594;11.046;2023-08-24T05:08:49;101005.50;;;26.11;64.10
42125;BME280;27787;44.594;11.046;2023-08-24T05:11:34;101011.97;;;26.09;64.39
42125;BME280;27787;44.594;11.046;2023-08-24T05:14:18;101009.66;;;26.01;65.21
42125;BME280;27787;44.594;11.046;2023-08-24T05:17:02;101015.50;;;25.94;65.01
42125;BME280;27787;44.594;11.046;2023-08-24T05:19:46;101017.25;;;25.95;65.09
42125;BME280;27787;44.594;11.046;2023-08-24T05:22:30;101021.00;;;25.92;64.95
42125;BME280;27787;44.594;11.046;2023-08-24T05:25:14;101024.56;;;25.93;64.99
42125;BME280;27787;44.594;11.046;2023-08-24T05:28:00;101025.28;;;25.96;64.31
42125;BME280;27787;44.594;11.046;2023-08-24T05:30:44;101022.31;;;26.01;63.31
42125;BME280;27787;44.594;11.046;2023-08-24T05:33:28;101011.28;;;26.05;62.44
42125;BME280;27787;44.594;11.046;2023-08-24T05:36:15;101009.19;;;26.10;62.20
42125;BME280;27787;44.594;11.046;2023-08-24T05:38:58;101017.78;;;26.19;62.08
42125;BME280;27787;44.594;11.046;2023-08-24T05:41:42;101021.09;;;26.24;62.15
42125;BME280;27787;44.594;11.046;2023-08-24T05:44:27;101008.09;;;26.30;62.20
42125;BME280;27787;44.594;11.046;2023-08-24T05:47:11;101022.22;;;26.37;62.69
42125;BME280;27787;44.594;11.046;2023-08-24T05:49:56;101022.59;;;26.47;62.27
42125;BME280;27787;44.594;11.046;2023-08-24T05:52:40;101024.09;;;26.52;62.27
42125;BME280;27787;44.594;11.046;2023-08-24T05:55:25;101022.94;;;26.56;62.78
42125;BME280;27787;44.594;11.046;2023-08-24T05:58:09;101019.31;;;26.57;63.14
42125;BME280;27787;44.594;11.046;2023-08-24T06:00:58;101029.78;;;26.63;63.35
42125;BME280;27787;44.594;11.046;2023-08-24T06:03:42;101020.88;;;26.61;63.38
42125;BME280;27787;44.594;11.046;2023-08-24T06:06:26;101028.13;;;26.61;63.17
42125;BME280;27787;44.594;11.046;2023-08-24T06:09:10;101039.66;;;26.64;63.46
42125;BME280;27787;44.594;11.046;2023-08-24T06:11:54;101025.34;;;26.62;63.67
42125;BME280;27787;44.594;11.046;2023-08-24T06:14:38;101032.75;;;26.59;64.67
42125;BME280;27787;44.594;11.046;2023-08-24T06:17:22;101032.22;;;26.52;65.97
42125;BME280;27787;44.594;11.046;2023-08-24T06:20:07;101031.59;;;26.47;66.15
42125;BME280;27787;44.594;11.046;2023-08-24T06:22:54;101033.53;;;26.45;66.13
42125;BME280;27787;44.594;11.046;2023-08-24T06:25:39;101029.94;;;26.44;65.92
42125;BME280;27787;44.594;11.046;2023-08-24T06:28:23;101039.81;;;26.45;65.86
42125;BME280;27787;44.594;11.046;2023-08-24T06:31:07;101035.34;;;26.44;66.13
42125;BME280;27787;44.594;11.046;2023-08-24T06:33:51;101034.31;;;26.47;65.29
42125;BME280;27787;44.594;11.046;2023-08-24T06:36:36;101029.41;;;26.54;65.26
42125;BME280;27787;44.594;11.046;2023-08-24T06:39:20;101033.63;;;26.59;64.99
42125;BME280;27787;44.594;11.046;2023-08-24T06:42:05;101034.25;;;26.64;64.91
42125;BME280;27787;44.594;11.046;2023-08-24T06:44:49;101016.81;;;26.70;64.55
42125;BME280;27787;44.594;11.046;2023-08-24T06:47:34;101025.44;;;26.77;63.04
42125;BME280;27787;44.594;11.046;2023-08-24T06:50:18;101022.31;;;26.84;63.04
42125;BME280;27787;44.594;11.046;2023-08-24T06:53:05;101018.03;;;26.96;62.30
42125;BME280;27787;44.594;11.046;2023-08-24T06:55:54;101018.16;;;27.10;61.68
42125;BME280;27787;44.594;11.046;2023-08-24T06:58:39;101014.81;;;27.21;60.45
42125;BME280;27787;44.594;11.046;2023-08-24T07:01:23;101023.09;;;27.33;59.99
42125;BME280;27787;44.594;11.046;2023-08-24T07:04:09;101027.22;;;27.41;59.80
42125;BME280;27787;44.594;11.046;2023-08-24T07:06:53;101029.41;;;27.50;59.61
42125;BME280;27787;44.594;11.046;2023-08-24T07:09:38;101024.56;;;27.55;59.77
42125;BME280;27787;44.594;11.046;2023-08-24T07:12:22;101014.25;;;27.61;59.69
42125;BME280;27787;44.594;11.046;2023-08-24T07:15:06;101017.47;;;27.68;60.12
42125;BME280;27787;44.594;11.046;2023-08-24T07:17:50;101021.75;;;27.72;59.87
42125;BME280;27787;44.594;11.046;2023-08-24T07:20:36;101015.28;;;27.75;59.66
42125;BME280;27787;44.594;11.046;2023-08-24T07:23:20;101013.25;;;27.78;59.90
42125;BME280;27787;44.594;11.046;2023-08-24T07:26:04;101013.06;;;27.81;59.51
42125;BME280;27787;44.594;11.046;2023-08-24T07:28:49;101013.06;;;27.81;59.64
42125;BME280;27787;44.594;11.046;2023-08-24T07:31:33;101013.06;;;27.81;58.72
42125;BME280;27787;44.594;11.046;2023-08-24T07:34:17;101024.50;;;27.86;58.70
42125;BME280;27787;44.594;11.046;2023-08-24T07:37:01;101018.72;;;27.92;58.76
42125;BME280;27787;44.594;11.046;2023-08-24T07:39:45;101016.88;;;27.93;58.20
42125;BME280;27787;44.594;11.046;2023-08-24T07:42:29;101017.66;;;27.95;58.23
42125;BME280;27787;44.594;11.046;2023-08-24T07:45:14;101017.28;;;28.01;58.60
42125;BME280;27787;44.594;11.046;2023-08-24T07:47:58;101021.66;;;28.04;58.26
42125;BME280;27787;44.594;11.046;2023-08-24T07:50:42;101019.72;;;28.06;57.82
42125;BME280;27787;44.594;11.046;2023-08-24T07:53:26;101024.94;;;28.09;56.74
42125;BME280;27787;44.594;11.046;2023-08-24T07:56:10;101028.53;;;28.09;55.26
42125;BME280;27787;44.594;11.046;2023-08-24T07:58:54;101028.28;;;28.14;55.90
42125;BME280;27787;44.594;11.046;2023-08-24T08:01:38;101022.44;;;28.20;56.54
42125;BME280;27787;44.594;11.046;2023-08-24T08:04:22;101024.78;;;28.26;57.73
42125;BME280;27787;44.594;11.046;2023-08-24T08:07:06;101025.41;;;28.31;58.53
42125;BME280;27787;44.594;11.046;2023-08-24T08:09:51;101033.09;;;28.39;59.07
42125;BME280;27787;44.594;11.046;2023-08-24T08:12:35;101038.59;;;28.37;58.41
42125;BME280;27787;44.594;11.046;2023-08-24T08:15:20;101044.81;;;28.39;58.33
42125;BME280;27787;44.594;11.046;2023-08-24T08:18:05;101045.84;;;28.37;57.81
42125;BME280;27787;44.594;11.046;2023-08-24T08:20:50;101052.97;;;28.39;59.24
42125;BME280;27787;44.594;11.046;2023-08-24T08:23:34;101052.28;;;28.50;58.37
42125;BME280;27787;44.594;11.046;2023-08-24T08:26:18;101055.28;;;28.60;58.33
42125;BME280;27787;44.594;11.046;2023-08-24T08:29:03;101053.63;;;28.71;56.60
42125;BME280;27787;44.594;11.046;2023-08-24T08:31:47;101051.13;;;28.68;57.09
42125;BME280;27787;44.594;11.046;2023-08-24T08:34:31;101054.72;;;28.69;57.38
42125;BME280;27787;44.594;11.046;2023-08-24T08:37:15;101045.88;;;28.79;57.58
42125;BME280;27787;44.594;11.046;2023-08-24T08:39:59;101052.97;;;28.82;57.08
42125;BME280;27787;44.594;11.046;2023-08-24T08:42:43;101042.34;;;28.77;57.61
42125;BME280;27787;44.594;11.046;2023-08-24T08:45:29;101047.72;;;28.79;57.27
42125;BME280;27787;44.594;11.046;2023-08-24T08:48:13;101041.31;;;28.80;57.89
42125;BME280;27787;44.594;11.046;2023-08-24T08:50:58;101041.00;;;28.85;56.88
42125;BME280;27787;44.594;11.046;2023-08-24T08:53:43;101040.91;;;28.86;57.62
42125;BME280;27787;44.594;11.046;2023-08-24T08:56:28;101038.28;;;28.85;57.58
42125;BME280;27787;44.594;11.046;2023-08-24T08:59:14;101040.84;;;28.88;57.87
42125;BME280;27787;44.594;11.046;2023-08-24T09:02:00;101030.25;;;28.97;56.94
42125;BME280;27787;44.594;11.046;2023-08-24T09:04:45;101026.34;;;29.01;56.61
42125;BME280;27787;44.594;11.046;2023-08-24T09:07:30;101023.63;;;29.01;56.71
42125;BME280;27787;44.594;11.046;2023-08-24T09:10:14;101032.00;;;28.98;57.51
42125;BME280;27787;44.594;11.046;2023-08-24T09:12:58;101031.22;;;28.96;56.03
42125;BME280;27787;44.594;11.046;2023-08-24T09:15:42;101029.28;;;28.98;52.96
42125;BME280;27787;44.594;11.046;2023-08-24T09:18:37;101025.31;;;29.04;51.13
42125;BME280;27787;44.594;11.046;2023-08-24T09:21:23;101031.19;;;29.11;51.70
42125;BME280;27787;44.594;11.046;2023-08-24T09:24:08;101022.53;;;29.18;52.20
42125;BME280;27787;44.594;11.046;2023-08-24T09:26:52;101017.97;;;29.19;53.55
42125;BME280;27787;44.594;11.046;2023-08-24T09:29:37;101017.09;;;29.18;53.42
42125;BME280;27787;44.594;11.046;2023-08-24T09:32:22;101016.22;;;29.18;52.33
42125;BME280;27787;44.594;11.046;2023-08-24T09:35:08;101008.72;;;29.21;51.54
42125;BME280;27787;44.594;11.046;2023-08-24T09:37:52;101008.19;;;29.29;50.46
42125;BME280;27787;44.594;11.046;2023-08-24T09:40:37;101004.97;;;29.36;50.10
42125;BME280;27787;44.594;11.046;2023-08-24T09:43:21;101007.19;;;29.44;49.87
42125;BME280;27787;44.594;11.046;2023-08-24T09:46:07;100996.03;;;29.49;48.91
42125;BME280;27787;44.594;11.046;2023-08-24T09:48:55;100993.09;;;29.52;48.44
42125;BME280;27787;44.594;11.046;2023-08-24T09:51:41;100993.66;;;29.57;47.63
42125;BME280;27787;44.594;11.046;2023-08-24T09:54:29;100988.44;;;29.66;47.45
42125;BME280;27787;44.594;11.046;2023-08-24T09:57:15;100985.44;;;29.71;45.80
42125;BME280;27787;44.594;11.046;2023-08-24T10:00:01;100981.28;;;29.78;44.28
42125;BME280;27787;44.594;11.046;2023-08-24T10:02:49;100988.16;;;29.84;44.27
42125;BME280;27787;44.594;11.046;2023-08-24T10:05:34;100984.91;;;29.91;44.46
42125;BME280;27787;44.594;11.046;2023-08-24T10:08:20;100987.09;;;29.99;44.72
42125;BME280;27787;44.594;11.046;2023-08-24T10:11:06;100982.28;;;30.03;44.44
42125;BME280;27787;44.594;11.046;2023-08-24T10:16:54;100978.09;;;30.24;43.27
42125;BME280;27787;44.594;11.046;2023-08-24T10:19:40;100972.06;;;30.32;43.32
42125;BME280;27787;44.594;11.046;2023-08-24T10:22:25;100973.41;;;30.39;43.86
42125;BME280;27787;44.594;11.046;2023-08-24T10:25:09;100970.22;;;30.45;44.69
42125;BME280;27787;44.594;11.046;2023-08-24T10:27:54;100970.53;;;30.53;45.88
42125;BME280;27787;44.594;11.046;2023-08-24T10:30:39;100962.75;;;30.60;45.50
42125;BME280;27787;44.594;11.046;2023-08-24T10:33:26;100960.75;;;30.63;45.77
42125;BME280;27787;44.594;11.046;2023-08-24T10:36:12;100956.81;;;30.67;45.98
42125;BME280;27787;44.594;11.046;2023-08-24T10:39:02;100955.56;;;30.71;46.25
42125;BME280;27787;44.594;11.046;2023-08-24T10:41:51;100953.53;;;30.75;45.87
42125;BME280;27787;44.594;11.046;2023-08-24T10:44:36;100942.63;;;30.75;42.90
42125;BME280;27787;44.594;11.046;2023-08-24T10:47:22;100945.84;;;30.80;41.75
42125;BME280;27787;44.594;11.046;2023-08-24T10:50:07;100944.06;;;30.92;41.02
42125;BME280;27787;44.594;11.046;2023-08-24T10:52:53;100939.69;;;31.02;40.69
42125;BME280;27787;44.594;11.046;2023-08-24T10:55:37;100940.94;;;31.09;40.42
42125;BME280;27787;44.594;11.046;2023-08-24T10:58:21;100938.88;;;31.13;40.26
42125;BME280;27787;44.594;11.046;2023-08-24T11:01:07;100927.84;;;31.14;40.47
42125;BME280;27787;44.594;11.046;2023-08-24T11:03:54;100930.00;;;31.22;41.83
42125;BME280;27787;44.594;11.046;2023-08-24T11:06:52;100928.88;;;31.24;41.64
42125;BME280;27787;44.594;11.046;2023-08-24T11:09:47;100924.97;;;31.28;41.45
42125;BME280;27787;44.594;11.046;2023-08-24T11:13:04;100919.38;;;31.30;39.46
42125;BME280;27787;44.594;11.046;2023-08-24T11:15:50;100919.13;;;31.33;39.60
42125;BME280;27787;44.594;11.046;2023-08-24T11:18:43;100910.59;;;31.37;39.83
42125;BME280;27787;44.594;11.046;2023-08-24T11:21:27;100915.34;;;31.47;39.69
42125;BME280;27787;44.594;11.046;2023-08-24T11:24:13;100907.56;;;31.53;39.54
42125;BME280;27787;44.594;11.046;2023-08-24T11:26:59;100906.19;;;31.59;39.58
42125;BME280;27787;44.594;11.046;2023-08-24T11:29:44;100905.72;;;31.65;39.77
42125;BME280;27787;44.594;11.046;2023-08-24T11:32:28;100902.38;;;31.73;39.15
42125;BME280;27787;44.594;11.046;2023-08-24T11:35:12;100900.28;;;31.76;39.39
42125;BME280;27787;44.594;11.046;2023-08-24T11:37:57;100891.88;;;31.79;40.01
42125;BME280;27787;44.594;11.046;2023-08-24T11:40:42;100896.09;;;31.83;39.15
42125;BME280;27787;44.594;11.046;2023-08-24T11:43:26;100886.53;;;31.89;40.03
42125;BME280;27787;44.594;11.046;2023-08-24T11:46:12;100895.00;;;31.97;40.14
42125;BME280;27787;44.594;11.046;2023-08-24T11:48:58;100883.81;;;32.00;40.53
42125;BME280;27787;44.594;11.046;2023-08-24T11:51:43;100882.47;;;32.06;40.06
42125;BME280;27787;44.594;11.046;2023-08-24T11:54:27;100877.25;;;32.14;39.30
42125;BME280;27787;44.594;11.046;2023-08-24T11:57:12;100875.75;;;32.21;39.29
42125;BME280;27787;44.594;11.046;2023-08-24T11:59:56;100875.50;;;32.24;39.79
42125;BME280;27787;44.594;11.046;2023-08-24T12:02:41;100868.81;;;32.28;39.57
42125;BME280;27787;44.594;11.046;2023-08-24T12:05:26;100873.78;;;32.34;38.64
42125;BME280;27787;44.594;11.046;2023-08-24T12:08:12;100865.06;;;32.40;38.24
42125;BME280;27787;44.594;11.046;2023-08-24T12:10:56;100861.84;;;32.46;38.33
42125;BME280;27787;44.594;11.046;2023-08-24T12:13:49;100855.72;;;32.54;37.65
42125;BME280;27787;44.594;11.046;2023-08-24T12:16:34;100851.13;;;32.54;37.30
42125;BME280;27787;44.594;11.046;2023-08-24T12:19:21;100849.16;;;32.56;37.72
42125;BME280;27787;44.594;11.046;2023-08-24T12:22:06;100844.44;;;32.59;37.65
42125;BME280;27787;44.594;11.046;2023-08-24T12:24:50;100834.22;;;32.61;37.42
42125;BME280;27787;44.594;11.046;2023-08-24T12:27:34;100833.84;;;32.65;37.11
42125;BME280;27787;44.594;11.046;2023-08-24T12:30:19;100832.34;;;32.72;37.00
42125;BME280;27787;44.594;11.046;2023-08-24T12:33:04;100823.47;;;32.80;37.09
42125;BME280;27787;44.594;11.046;2023-08-24T12:35:48;100829.31;;;32.87;37.03
42125;BME280;27787;44.594;11.046;2023-08-24T12:38:32;100818.97;;;32.90;36.96
42125;BME280;27787;44.594;11.046;2023-08-24T12:41:18;100815.25;;;32.91;37.15
42125;BME280;27787;44.594;11.046;2023-08-24T12:44:03;100815.59;;;32.98;37.13
42125;BME280;27787;44.594;11.046;2023-08-24T12:46:49;100813.47;;;33.01;36.87
42125;BME280;27787;44.594;11.046;2023-08-24T12:49:33;100803.59;;;33.10;36.78
42125;BME280;27787;44.594;11.046;2023-08-24T12:52:18;100809.25;;;33.18;36.66
42125;BME280;27787;44.594;11.046;2023-08-24T12:55:02;100802.53;;;33.22;35.92
42125;BME280;27787;44.594;11.046;2023-08-24T12:57:48;100795.66;;;33.28;36.31
42125;BME280;27787;44.594;11.046;2023-08-24T13:00:32;100788.75;;;33.33;36.63
42125;BME280;27787;44.594;11.046;2023-08-24T13:03:16;100790.00;;;33.40;36.09
42125;BME280;27787;44.594;11.046;2023-08-24T13:06:01;100780.25;;;33.48;35.81
42125;BME280;27787;44.594;11.046;2023-08-24T13:08:45;100773.38;;;33.53;35.65
42125;BME280;27787;44.594;11.046;2023-08-24T13:11:29;100767.59;;;33.56;34.86
42125;BME280;27787;44.594;11.046;2023-08-24T13:14:13;100770.69;;;33.63;35.43
42125;BME280;27787;44.594;11.046;2023-08-24T13:16:57;100764.78;;;33.67;35.31
42125;BME280;27787;44.594;11.046;2023-08-24T13:19:41;100762.75;;;33.69;35.38
42125;BME280;27787;44.594;11.046;2023-08-24T13:22:26;100766.97;;;33.73;35.05
42125;BME280;27787;44.594;11.046;2023-08-24T13:25:10;100768.00;;;33.82;34.72
42125;BME280;27787;44.594;11.046;2023-08-24T13:27:54;100757.84;;;33.94;34.30
42125;BME280;27787;44.594;11.046;2023-08-24T13:30:40;100749.53;;;34.05;34.45
42125;BME280;27787;44.594;11.046;2023-08-24T13:33:24;100751.13;;;34.17;34.17
42125;BME280;27787;44.594;11.046;2023-08-24T13:36:08;100745.53;;;34.28;33.86
42125;BME280;27787;44.594;11.046;2023-08-24T13:38:52;100735.50;;;34.39;33.36
42125;BME280;27787;44.594;11.046;2023-08-24T13:41:37;100743.53;;;34.50;33.27
42125;BME280;27787;44.594;11.046;2023-08-24T13:44:21;100739.94;;;34.59;33.09
42125;BME280;27787;44.594;11.046;2023-08-24T13:47:05;100726.41;;;34.67;32.82
42125;BME280;27787;44.594;11.046;2023-08-24T13:49:49;100727.53;;;34.74;32.56
42125;BME280;27787;44.594;11.046;2023-08-24T13:52:33;100732.16;;;34.83;33.20
42125;BME280;27787;44.594;11.046;2023-08-24T13:55:18;100731.31;;;34.93;32.98
42125;BME280;27787;44.594;11.046;2023-08-24T13:58:02;100725.06;;;35.00;32.79
42125;BME280;27787;44.594;11.046;2023-08-24T14:00:47;100711.34;;;35.10;32.41
42125;BME280;27787;44.594;11.046;2023-08-24T14:03:32;100715.63;;;35.22;32.13
42125;BME280;27787;44.594;11.046;2023-08-24T14:06:16;100713.03;;;35.30;32.40
42125;BME280;27787;44.594;11.046;2023-08-24T14:09:00;100715.63;;;35.32;32.17
42125;BME280;27787;44.594;11.046;2023-08-24T14:11:45;100712.44;;;35.36;32.34
42125;BME280;27787;44.594;11.046;2023-08-24T14:14:29;100704.34;;;35.44;31.89
42125;BME280;27787;44.594;11.046;2023-08-24T14:17:13;100707.88;;;35.55;31.52
42125;BME280;27787;44.594;11.046;2023-08-24T14:19:57;100697.88;;;35.63;31.66
42125;BME280;27787;44.594;11.046;2023-08-24T14:22:41;100693.34;;;35.72;31.40